sensor_id;sensor_type;location;lat;lon;timestamp;pressure;altitude;pressure_sealevel;temperature;humidity
8140;BME280;4111;50.972;7.072;2023-03-21T00:00:27;101283.53;;;11.40;73.97
8140;BME280;4111;50.972;7.072;2023-03-21T00:02:54;101284.72;;;11.44;73.76
8140;BME280;4111;50.972;7.072;2023-03-21T00:05:20;101281.19;;;11.43;73.48
8140;BME280;4111;50.972;7.072;2023-03-21T00:07:47;101277.63;;;11.43;73.88
8140;BME280;4111;50.972;7.072;2023-03-21T00:10:14;101277.25;;;11.39;73.87
8140;BME280;4111;50.972;7.072;2023-03-21T00:12:52;101277.16;;;11.46;73.63
8140;BME280;4111;50.972;7.072;2023-03-21T00:15:24;101283.28;;;11.41;73.88
8140;BME280;4111;50.972;7.072;2023-03-21T00:18:06;101273.84;;;11.44;73.59
8140;BME280;4111;50.972;7.072;2023-03-21T00:20:36;101271.56;;;11.52;73.80
8140;BME280;4111;50.972;7.072;2023-03-21T00:23:03;101272.16;;;11.55;73.72
8140;BME280;4111;50.972;7.072;2023-03-21T00:25:29;101260.34;;;11.49;73.11
8140;BME280;4111;50.972;7.072;2023-03-21T00:27:58;101263.63;;;11.51;73.43
8140;BME280;4111;50.972;7.072;2023-03-21T00:30:33;101266.94;;;11.53;73.26
8140;BME280;4111;50.972;7.072;2023-03-21T00:33:00;101265.53;;;11.50;73.31
8140;BME280;4111;50.972;7.072;2023-03-21T00:35:37;101257.63;;;11.49;73.33
8140;BME280;4111;50.972;7.072;2023-03-21T00:38:24;101257.41;;;11.39;73.31
8140;BME280;4111;50.972;7.072;2023-03-21T00:40:50;101256.47;;;11.33;73.74
8140;BME280;4111;50.972;7.072;2023-03-21T00:43:17;101254.00;;;11.31;73.95
8140;BME280;4111;50.972;7.072;2023-03-21T00:45:50;101249.47;;;11.37;73.96
8140;BME280;4111;50.972;7.072;2023-03-21T00:48:17;101254.22;;;11.42;73.89
8140;BME280;4111;50.972;7.072;2023-03-21T00:50:45;101257.19;;;11.40;73.87
8140;BME280;4111;50.972;7.072;2023-03-21T00:53:13;101246.53;;;11.39;74.17
8140;BME280;4111;50.972;7.072;2023-03-21T00:55:40;101250.41;;;11.43;74.29
8140;BME280;4111;50.972;7.072;2023-03-21T00:58:07;101243.81;;;11.39;73.94
8140;BME280;4111;50.972;7.072;2023-03-21T01:00:33;101239.53;;;11.43;73.99
8140;BME280;4111;50.972;7.072;2023-03-21T01:03:04;101232.47;;;11.42;73.77
8140;BME280;4111;50.972;7.072;2023-03-21T01:05:49;101232.47;;;11.42;73.76
8140;BME280;4111;50.972;7.072;2023-03-21T01:08:40;101234.22;;;11.48;73.95
8140;BME280;4111;50.972;7.072;2023-03-21T01:11:22;101227.50;;;11.39;73.89
8140;BME280;4111;50.972;7.072;2023-03-21T01:13:51;101228.31;;;11.39;74.08
8140;BME280;4111;50.972;7.072;2023-03-21T01:16:27;101228.09;;;11.41;74.26
8140;BME280;4111;50.972;7.072;2023-03-21T01:18:54;101222.56;;;11.36;74.44
8140;BME280;4111;50.972;7.072;2023-03-21T01:21:21;101218.75;;;11.37;74.35
8140;BME280;4111;50.972;7.072;2023-03-21T01:23:47;101219.72;;;11.30;74.24
8140;BME280;4111;50.972;7.072;2023-03-21T01:26:14;101220.81;;;11.29;74.33
8140;BME280;4111;50.972;7.072;2023-03-21T01:28:41;101219.72;;;11.30;74.63
8140;BME280;4111;50.972;7.072;2023-03-21T01:31:10;101219.34;;;11.39;74.41
8140;BME280;4111;50.972;7.072;2023-03-21T01:33:38;101212.34;;;11.43;74.67
8140;BME280;4111;50.972;7.072;2023-03-21T01:36:06;101215.81;;;11.38;74.77
8140;BME280;4111;50.972;7.072;2023-03-21T01:38:39;101207.41;;;11.40;74.73
8140;BME280;4111;50.972;7.072;2023-03-21T01:41:08;101212.03;;;11.27;74.69
8140;BME280;4111;50.972;7.072;2023-03-21T01:43:45;101204.94;;;11.38;74.79
8140;BME280;4111;50.972;7.072;2023-03-21T01:46:41;101199.00;;;11.41;74.76
8140;BME280;4111;50.972;7.072;2023-03-21T01:49:33;101214.13;;;11.37;74.91
8140;BME280;4111;50.972;7.072;2023-03-21T01:52:05;101205.66;;;11.34;75.00
8140;BME280;4111;50.972;7.072;2023-03-21T01:54:41;101214.66;;;11.22;75.22
8140;BME280;4111;50.972;7.072;2023-03-21T01:57:16;101213.81;;;11.34;75.12
8140;BME280;4111;50.972;7.072;2023-03-21T01:59:51;101206.13;;;11.30;75.15
8140;BME280;4111;50.972;7.072;2023-03-21T02:02:24;101197.50;;;11.34;75.38
8140;BME280;4111;50.972;7.072;2023-03-21T02:04:52;101201.97;;;11.40;75.13
8140;BME280;4111;50.972;7.072;2023-03-21T02:07:31;101194.28;;;11.37;75.07
8140;BME280;4111;50.972;7.072;2023-03-21T02:10:06;101185.94;;;11.26;75.43
8140;BME280;4111;50.972;7.072;2023-03-21T02:12:35;101189.38;;;11.22;75.55
8140;BME280;4111;50.972;7.072;2023-03-21T02:15:01;101189.97;;;11.12;75.83
8140;BME280;4111;50.972;7.072;2023-03-21T02:17:41;101185.00;;;11.09;75.83
8140;BME280;4111;50.972;7.072;2023-03-21T02:20:35;101178.25;;;11.11;75.96
8140;BME280;4111;50.972;7.072;2023-03-21T02:29:37;101155.69;;;11.11;76.42
8140;BME280;4111;50.972;7.072;2023-03-21T02:32:22;101160.66;;;11.14;76.39
8140;BME280;4111;50.972;7.072;2023-03-21T02:35:22;101152.75;;;11.13;76.45
8140;BME280;4111;50.972;7.072;2023-03-21T02:37:58;101148.13;;;11.13;76.57
8140;BME280;4111;50.972;7.072;2023-03-21T02:40:32;101145.31;;;11.08;76.61
8140;BME280;4111;50.972;7.072;2023-03-21T02:43:14;101146.50;;;11.12;76.56
8140;BME280;4111;50.972;7.072;2023-03-21T02:46:09;101144.94;;;11.16;76.52
8140;BME280;4111;50.972;7.072;2023-03-21T02:48:46;101146.50;;;11.12;76.69
8140;BME280;4111;50.972;7.072;2023-03-21T02:51:20;101143.19;;;11.10;76.63
8140;BME280;4111;50.972;7.072;2023-03-21T02:53:51;101145.53;;;11.18;76.51
8140;BME280;4111;50.972;7.072;2023-03-21T02:56:39;101143.47;;;11.25;76.50
8140;BME280;4111;50.972;7.072;2023-03-21T02:59:06;101138.19;;;11.19;76.37
8140;BME280;4111;50.972;7.072;2023-03-21T03:01:34;101148.13;;;11.13;77.24
8140;BME280;4111;50.972;7.072;2023-03-21T03:04:01;101147.16;;;11.19;76.59
8140;BME280;4111;50.972;7.072;2023-03-21T03:06:46;101143.97;;;11.22;76.38
8140;BME280;4111;50.972;7.072;2023-03-21T03:09:35;101141.06;;;11.12;76.89
8140;BME280;4111;50.972;7.072;2023-03-21T03:23:41;101136.53;;;11.29;76.87
8140;BME280;4111;50.972;7.072;2023-03-21T03:26:20;101133.34;;;11.21;77.06
8140;BME280;4111;50.972;7.072;2023-03-21T03:28:52;101126.59;;;11.23;77.03
8140;BME280;4111;50.972;7.072;2023-03-21T03:31:32;101121.41;;;11.22;77.14
8140;BME280;4111;50.972;7.072;2023-03-21T03:34:05;101116.09;;;11.15;77.23
8140;BME280;4111;50.972;7.072;2023-03-21T03:36:36;101114.59;;;11.07;77.47
8140;BME280;4111;50.972;7.072;2023-03-21T03:39:07;101109.72;;;11.09;77.46
8140;BME280;4111;50.972;7.072;2023-03-21T03:41:46;101113.66;;;11.02;77.60
8140;BME280;4111;50.972;7.072;2023-03-21T03:44:34;101114.28;;;11.04;77.83
8140;BME280;4111;50.972;7.072;2023-03-21T03:47:29;101103.28;;;10.99;77.91
8140;BME280;4111;50.972;7.072;2023-03-21T03:50:20;101108.72;;;10.99;78.10
8140;BME280;4111;50.972;7.072;2023-03-21T03:52:54;101103.06;;;10.88;78.25
8140;BME280;4111;50.972;7.072;2023-03-21T03:55:26;101105.56;;;10.90;78.62
8140;BME280;4111;50.972;7.072;2023-03-21T03:58:00;101105.41;;;10.97;78.37
8140;BME280;4111;50.972;7.072;2023-03-21T04:00:33;101105.28;;;10.91;78.46
8140;BME280;4111;50.972;7.072;2023-03-21T04:03:00;101108.00;;;10.91;78.52
8140;BME280;4111;50.972;7.072;2023-03-21T04:05:27;101103.06;;;10.88;78.69
8140;BME280;4111;50.972;7.072;2023-03-21T04:07:53;101103.06;;;10.88;78.76
8140;BME280;4111;50.972;7.072;2023-03-21T04:10:20;101097.53;;;10.83;78.78
8140;BME280;4111;50.972;7.072;2023-03-21T04:12:48;101095.63;;;10.84;79.05
8140;BME280;4111;50.972;7.072;2023-03-21T04:15:15;101094.94;;;10.88;79.05
8140;BME280;4111;50.972;7.072;2023-03-21T04:17:41;101082.91;;;10.84;79.03
8140;BME280;4111;50.972;7.072;2023-03-21T04:20:08;101090.91;;;10.91;78.91
8140;BME280;4111;50.972;7.072;2023-03-21T04:22:42;101092.69;;;10.85;78.88
8140;BME280;4111;50.972;7.072;2023-03-21T04:25:08;101084.66;;;10.79;78.91
8140;BME280;4111;50.972;7.072;2023-03-21T04:27:36;101082.91;;;10.73;79.51
8140;BME280;4111;50.972;7.072;2023-03-21T04:30:03;101086.22;;;10.75;79.87
8140;BME280;4111;50.972;7.072;2023-03-21T04:32:31;101081.84;;;10.74;79.57
8140;BME280;4111;50.972;7.072;2023-03-21T04:34:59;101084.69;;;10.67;79.97
8140;BME280;4111;50.972;7.072;2023-03-21T04:37:26;101083.59;;;10.68;80.05
8140;BME280;4111;50.972;7.072;2023-03-21T04:39:53;101081.75;;;10.68;80.23
8140;BME280;4111;50.972;7.072;2023-03-21T04:42:19;101076.41;;;10.74;80.18
8140;BME280;4111;50.972;7.072;2023-03-21T04:44:47;101078.41;;;10.78;79.90
8140;BME280;4111;50.972;7.072;2023-03-21T04:47:13;101080.06;;;10.79;79.85
8140;BME280;4111;50.972;7.072;2023-03-21T04:49:41;101069.06;;;10.74;80.12
8140;BME280;4111;50.972;7.072;2023-03-21T04:52:08;101073.91;;;10.72;80.39
8140;BME280;4111;50.972;7.072;2023-03-21T04:54:34;101075.09;;;10.76;80.48
8140;BME280;4111;50.972;7.072;2023-03-21T04:57:01;101066.13;;;10.76;80.05
8140;BME280;4111;50.972;7.072;2023-03-21T04:59:27;101072.13;;;10.78;80.48
8140;BME280;4111;50.972;7.072;2023-03-21T05:01:54;101071.44;;;10.82;80.34
8140;BME280;4111;50.972;7.072;2023-03-21T05:04:22;101068.03;;;10.75;80.45
8140;BME280;4111;50.972;7.072;2023-03-21T05:06:48;101069.66;;;10.76;80.35
8140;BME280;4111;50.972;7.072;2023-03-21T05:09:15;101079.34;;;10.72;80.46
8140;BME280;4111;50.972;7.072;2023-03-21T05:11:41;101076.16;;;10.75;80.58
8140;BME280;4111;50.972;7.072;2023-03-21T05:14:10;101071.44;;;10.82;80.64
8140;BME280;4111;50.972;7.072;2023-03-21T05:16:41;101074.81;;;10.89;80.27
8140;BME280;4111;50.972;7.072;2023-03-21T05:19:14;101074.94;;;10.95;80.31
8140;BME280;4111;50.972;7.072;2023-03-21T05:21:41;101071.16;;;10.96;80.13
8140;BME280;4111;50.972;7.072;2023-03-21T05:24:12;101077.06;;;10.93;80.07
8140;BME280;4111;50.972;7.072;2023-03-21T05:26:40;101066.81;;;10.83;80.30
8140;BME280;4111;50.972;7.072;2023-03-21T05:29:07;101072.72;;;10.80;80.57
8140;BME280;4111;50.972;7.072;2023-03-21T05:31:34;101078.03;;;10.86;80.46
8140;BME280;4111;50.972;7.072;2023-03-21T05:34:02;101076.75;;;10.77;80.53
8140;BME280;4111;50.972;7.072;2023-03-21T05:36:28;101070.88;;;10.68;80.95
8140;BME280;4111;50.972;7.072;2023-03-21T05:38:55;101063.78;;;10.67;81.31
8140;BME280;4111;50.972;7.072;2023-03-21T05:41:21;101066.13;;;10.76;81.22
8140;BME280;4111;50.972;7.072;2023-03-21T05:43:48;101066.00;;;10.82;81.65
8140;BME280;4111;50.972;7.072;2023-03-21T05:46:14;101076.97;;;10.87;81.17
8140;BME280;4111;50.972;7.072;2023-03-21T05:48:41;101070.47;;;10.88;80.88
8140;BME280;4111;50.972;7.072;2023-03-21T05:51:07;101066.69;;;10.89;81.03
8140;BME280;4111;50.972;7.072;2023-03-21T05:53:34;101075.91;;;10.88;81.07
8140;BME280;4111;50.972;7.072;2023-03-21T05:56:00;101073.44;;;10.87;81.03
8140;BME280;4111;50.972;7.072;2023-03-21T05:58:27;101077.53;;;10.89;80.93
8140;BME280;4111;50.972;7.072;2023-03-21T06:00:53;101070.81;;;10.92;81.05
8140;BME280;4111;50.972;7.072;2023-03-21T06:03:20;101070.47;;;10.88;81.38
8140;BME280;4111;50.972;7.072;2023-03-21T06:05:46;101068.81;;;10.87;81.68
8140;BME280;4111;50.972;7.072;2023-03-21T06:08:12;101072.13;;;10.89;81.59
8140;BME280;4111;50.972;7.072;2023-03-21T06:10:39;101073.06;;;10.83;82.24
8140;BME280;4111;50.972;7.072;2023-03-21T06:13:06;101077.47;;;10.84;82.30
8140;BME280;4111;50.972;7.072;2023-03-21T06:15:32;101085.09;;;10.87;82.51
8140;BME280;4111;50.972;7.072;2023-03-21T06:17:59;101080.84;;;10.91;82.44
8140;BME280;4111;50.972;7.072;2023-03-21T06:20:25;101077.28;;;11.03;81.97
8140;BME280;4111;50.972;7.072;2023-03-21T06:22:52;101081.53;;;10.99;82.25
8140;BME280;4111;50.972;7.072;2023-03-21T06:25:18;101076.47;;;11.02;82.57
8140;BME280;4111;50.972;7.072;2023-03-21T06:27:45;101078.25;;;10.97;82.48
8140;BME280;4111;50.972;7.072;2023-03-21T06:30:12;101081.34;;;10.88;82.73
8140;BME280;4111;50.972;7.072;2023-03-21T06:32:38;101082.97;;;10.89;83.30
8140;BME280;4111;50.972;7.072;2023-03-21T06:35:05;101084.25;;;10.99;83.21
8140;BME280;4111;50.972;7.072;2023-03-21T06:37:31;101091.25;;;10.95;82.79
8140;BME280;4111;50.972;7.072;2023-03-21T06:39:58;101082.50;;;10.93;83.18
8140;BME280;4111;50.972;7.072;2023-03-21T06:42:24;101090.28;;;11.01;83.22
8140;BME280;4111;50.972;7.072;2023-03-21T06:44:51;101087.41;;;11.07;82.81
8140;BME280;4111;50.972;7.072;2023-03-21T06:47:17;101086.97;;;10.99;83.19
8140;BME280;4111;50.972;7.072;2023-03-21T06:49:44;101083.56;;;10.91;83.73
8140;BME280;4111;50.972;7.072;2023-03-21T06:52:11;101085.81;;;10.95;83.41
8140;BME280;4111;50.972;7.072;2023-03-21T06:54:37;101086.00;;;11.05;83.21
8140;BME280;4111;50.972;7.072;2023-03-21T06:57:04;101088.16;;;11.03;83.23
8140;BME280;4111;50.972;7.072;2023-03-21T06:59:30;101086.22;;;11.15;83.76
8140;BME280;4111;50.972;7.072;2023-03-21T07:01:57;101090.09;;;11.19;83.66
8140;BME280;4111;50.972;7.072;2023-03-21T07:04:23;101091.13;;;11.30;83.27
8140;BME280;4111;50.972;7.072;2023-03-21T07:06:50;101103.91;;;11.29;82.87
8140;BME280;4111;50.972;7.072;2023-03-21T07:09:16;101092.19;;;11.29;82.71
8140;BME280;4111;50.972;7.072;2023-03-21T07:11:45;101097.97;;;11.32;82.78
8140;BME280;4111;50.972;7.072;2023-03-21T07:14:11;101106.22;;;11.38;82.04
8140;BME280;4111;50.972;7.072;2023-03-21T07:16:37;101102.59;;;11.49;82.03
8140;BME280;4111;50.972;7.072;2023-03-21T07:19:04;101118.09;;;11.48;81.65
8140;BME280;4111;50.972;7.072;2023-03-21T07:21:30;101108.22;;;11.42;81.75
8140;BME280;4111;50.972;7.072;2023-03-21T07:23:57;101111.16;;;11.41;81.91
8140;BME280;4111;50.972;7.072;2023-03-21T07:26:23;101108.22;;;11.42;82.25
8140;BME280;4111;50.972;7.072;2023-03-21T07:28:50;101120.59;;;11.50;82.08
8140;BME280;4111;50.972;7.072;2023-03-21T07:31:16;101111.34;;;11.51;82.41
8140;BME280;4111;50.972;7.072;2023-03-21T07:33:43;101114.00;;;11.46;82.52
8140;BME280;4111;50.972;7.072;2023-03-21T07:36:11;101112.50;;;11.38;82.91
8140;BME280;4111;50.972;7.072;2023-03-21T07:38:38;101115.19;;;11.38;83.34
8140;BME280;4111;50.972;7.072;2023-03-21T07:41:06;101099.28;;;11.30;84.02
8140;BME280;4111;50.972;7.072;2023-03-21T07:43:33;101108.16;;;11.25;85.19
8140;BME280;4111;50.972;7.072;2023-03-21T07:46:01;101103.59;;;11.14;86.79
8140;BME280;4111;50.972;7.072;2023-03-21T07:48:28;101101.34;;;11.11;87.68
8140;BME280;4111;50.972;7.072;2023-03-21T07:50:55;101109.63;;;11.16;88.34
8140;BME280;4111;50.972;7.072;2023-03-21T07:53:21;101112.19;;;11.23;88.80
8140;BME280;4111;50.972;7.072;2023-03-21T07:55:51;101111.25;;;11.17;89.44
8140;BME280;4111;50.972;7.072;2023-03-21T07:58:22;101117.84;;;11.21;89.58
8140;BME280;4111;50.972;7.072;2023-03-21T08:00:49;101111.25;;;11.17;90.08
8140;BME280;4111;50.972;7.072;2023-03-21T08:03:16;101117.53;;;11.18;90.84
8140;BME280;4111;50.972;7.072;2023-03-21T08:05:43;101124.59;;;11.19;91.32
8140;BME280;4111;50.972;7.072;2023-03-21T08:08:10;101118.47;;;11.11;92.32
8140;BME280;4111;50.972;7.072;2023-03-21T08:10:37;101126.19;;;11.03;93.00
8140;BME280;4111;50.972;7.072;2023-03-21T08:13:03;101118.28;;;11.01;93.52
8140;BME280;4111;50.972;7.072;2023-03-21T08:15:30;101115.13;;;10.93;94.11
8140;BME280;4111;50.972;7.072;2023-03-21T08:17:58;101114.91;;;10.82;95.79
8140;BME280;4111;50.972;7.072;2023-03-21T08:20:24;101117.97;;;10.74;96.41
8140;BME280;4111;50.972;7.072;2023-03-21T08:22:51;101117.16;;;10.74;97.46
8140;BME280;4111;50.972;7.072;2023-03-21T08:25:19;101108.41;;;10.71;98.30
8140;BME280;4111;50.972;7.072;2023-03-21T08:27:47;101109.00;;;10.62;99.42
8140;BME280;4111;50.972;7.072;2023-03-21T08:30:17;101115.53;;;10.61;100.00
8140;BME280;4111;50.972;7.072;2023-03-21T08:32:44;101108.06;;;10.68;100.00
8140;BME280;4111;50.972;7.072;2023-03-21T08:35:12;101111.84;;;10.67;100.00
8140;BME280;4111;50.972;7.072;2023-03-21T08:37:39;101107.97;;;10.63;100.00
8140;BME280;4111;50.972;7.072;2023-03-21T08:40:09;101099.81;;;10.63;100.00
8140;BME280;4111;50.972;7.072;2023-03-21T08:42:37;101110.19;;;10.66;100.00
8140;BME280;4111;50.972;7.072;2023-03-21T08:45:04;101116.09;;;10.63;100.00
8140;BME280;4111;50.972;7.072;2023-03-21T08:47:31;101115.53;;;10.49;100.00
8140;BME280;4111;50.972;7.072;2023-03-21T08:49:58;101114.56;;;10.55;100.00
8140;BME280;4111;50.972;7.072;2023-03-21T08:52:25;101103.13;;;10.65;100.00
8140;BME280;4111;50.972;7.072;2023-03-21T08:54:53;101113.03;;;10.59;100.00
8140;BME280;4111;50.972;7.072;2023-03-21T08:57:20;101114.44;;;10.62;100.00
8140;BME280;4111;50.972;7.072;2023-03-21T08:59:46;101104.53;;;10.67;100.00
8140;BME280;4111;50.972;7.072;2023-03-21T09:02:14;101099.91;;;10.68;100.00
8140;BME280;4111;50.972;7.072;2023-03-21T09:04:41;101110.78;;;10.68;100.00
8140;BME280;4111;50.972;7.072;2023-03-21T09:07:09;101106.41;;;10.67;100.00
8140;BME280;4111;50.972;7.072;2023-03-21T09:09:38;101113.13;;;10.76;100.00
8140;BME280;4111;50.972;7.072;2023-03-21T09:12:04;101100.03;;;10.73;100.00
8140;BME280;4111;50.972;7.072;2023-03-21T09:14:31;101107.59;;;10.71;100.00
8140;BME280;4111;50.972;7.072;2023-03-21T09:16:58;101101.56;;;10.69;100.00
8140;BME280;4111;50.972;7.072;2023-03-21T09:19:25;101104.88;;;10.71;100.00
8140;BME280;4111;50.972;7.072;2023-03-21T09:21:53;101100.03;;;10.73;100.00
8140;BME280;4111;50.972;7.072;2023-03-21T09:24:20;101100.25;;;10.83;100.00
8140;BME280;4111;50.972;7.072;2023-03-21T09:26:48;101103.69;;;10.79;100.00
8140;BME280;4111;50.972;7.072;2023-03-21T09:29:17;101095.31;;;10.80;100.00
8140;BME280;4111;50.972;7.072;2023-03-21T09:31:46;101089.25;;;10.90;100.00
8140;BME280;4111;50.972;7.072;2023-03-21T09:34:12;101090.69;;;10.81;100.00
8140;BME280;4111;50.972;7.072;2023-03-21T09:36:42;101086.56;;;10.78;100.00
8140;BME280;4111;50.972;7.072;2023-03-21T09:39:13;101090.06;;;10.90;100.00
8140;BME280;4111;50.972;7.072;2023-03-21T09:41:57;101092.56;;;10.92;100.00
8140;BME280;4111;50.972;7.072;2023-03-21T09:44:50;101089.38;;;10.83;100.00
8140;BME280;4111;50.972;7.072;2023-03-21T09:47:22;101097.06;;;10.86;100.00
8140;BME280;4111;50.972;7.072;2023-03-21T09:49:58;101088.19;;;10.91;100.00
8140;BME280;4111;50.972;7.072;2023-03-21T09:55:19;101095.94;;;10.99;100.00
8140;BME280;4111;50.972;7.072;2023-03-21T09:58:35;101087.13;;;10.92;100.00
8140;BME280;4111;50.972;7.072;2023-03-21T10:00:39;101083.81;;;10.90;100.00
8140;BME280;4111;50.972;7.072;2023-03-21T10:03:28;101099.41;;;10.83;100.00
8140;BME280;4111;50.972;7.072;2023-03-21T10:05:56;101093.16;;;10.94;100.00
8140;BME280;4111;50.972;7.072;2023-03-21T10:08:29;101092.56;;;10.92;100.00
8140;BME280;4111;50.972;7.072;2023-03-21T10:11:18;101077.69;;;10.83;100.00
8140;BME280;4111;50.972;7.072;2023-03-21T10:18:54;101071.38;;;11.06;100.00
8140;BME280;4111;50.972;7.072;2023-03-21T10:21:22;101075.31;;;10.86;100.00
8140;BME280;4111;50.972;7.072;2023-03-21T10:24:11;101071.75;;;10.86;100.00
8140;BME280;4111;50.972;7.072;2023-03-21T10:26:39;101075.56;;;10.85;100.00
8140;BME280;4111;50.972;7.072;2023-03-21T10:29:06;101075.06;;;10.88;100.00
8140;BME280;4111;50.972;7.072;2023-03-21T10:31:35;101065.28;;;10.87;100.00
8140;BME280;4111;50.972;7.072;2023-03-21T10:34:41;101069.50;;;10.95;100.00
8140;BME280;4111;50.972;7.072;2023-03-21T10:37:00;101059.63;;;10.88;100.00
8140;BME280;4111;50.972;7.072;2023-03-21T10:39:40;101053.78;;;10.97;100.00
8140;BME280;4111;50.972;7.072;2023-03-21T10:42:28;101051.06;;;10.97;100.00
8140;BME280;4111;50.972;7.072;2023-03-21T10:44:57;101050.09;;;11.03;100.00
8140;BME280;4111;50.972;7.072;2023-03-21T10:47:33;101051.41;;;11.00;100.00
8140;BME280;4111;50.972;7.072;2023-03-21T10:50:01;101047.50;;;11.08;100.00
8140;BME280;4111;50.972;7.072;2023-03-21T10:52:34;101041.94;;;11.03;100.00
8140;BME280;4111;50.972;7.072;2023-03-21T10:55:15;101036.63;;;11.08;100.00
8140;BME280;4111;50.972;7.072;2023-03-21T10:57:44;101031.38;;;11.18;100.00
8140;BME280;4111;50.972;7.072;2023-03-21T11:00:24;101018.72;;;11.24;100.00
8140;BME280;4111;50.972;7.072;2023-03-21T11:02:52;101010.78;;;11.22;100.00
8140;BME280;4111;50.972;7.072;2023-03-21T11:05:24;101023.50;;;11.34;100.00
8140;BME280;4111;50.972;7.072;2023-03-21T11:07:57;101023.09;;;11.42;100.00
8140;BME280;4111;50.972;7.072;2023-03-21T11:10:33;101013.97;;;11.48;100.00
8140;BME280;4111;50.972;7.072;2023-03-21T11:13:05;101012.97;;;11.54;100.00
8140;BME280;4111;50.972;7.072;2023-03-21T11:18:17;100997.00;;;11.58;100.00
8140;BME280;4111;50.972;7.072;2023-03-21T11:21:01;100992.28;;;11.53;100.00
8140;BME280;4111;50.972;7.072;2023-03-21T11:23:31;100996.31;;;11.50;100.00
8140;BME280;4111;50.972;7.072;2023-03-21T11:26:00;100988.91;;;11.46;100.00
8140;BME280;4111;50.972;7.072;2023-03-21T11:28:38;100981.34;;;11.48;100.00
8140;BME280;4111;50.972;7.072;2023-03-21T11:31:07;100975.38;;;11.51;100.00
8140;BME280;4111;50.972;7.072;2023-03-21T11:33:38;100974.56;;;11.50;100.00
8140;BME280;4111;50.972;7.072;2023-03-21T11:38:52;100967.22;;;11.51;100.00
8140;BME280;4111;50.972;7.072;2023-03-21T11:41:24;100970.84;;;11.57;100.00
8140;BME280;4111;50.972;7.072;2023-03-21T11:43:55;100962.06;;;11.49;100.00
8140;BME280;4111;50.972;7.072;2023-03-21T11:46:26;100959.72;;;11.41;100.00
8140;BME280;4111;50.972;7.072;2023-03-21T11:48:54;100961.06;;;11.39;100.00
8140;BME280;4111;50.972;7.072;2023-03-21T11:51:40;100970.78;;;11.35;100.00
8140;BME280;4111;50.972;7.072;2023-03-21T12:02:32;100978.19;;;11.22;100.00
8140;BME280;4111;50.972;7.072;2023-03-21T12:05:18;100979.16;;;11.33;100.00
8140;BME280;4111;50.972;7.072;2023-03-21T12:10:54;100969.63;;;11.30;100.00
8140;BME280;4111;50.972;7.072;2023-03-21T12:13:53;100957.13;;;11.29;100.00
8140;BME280;4111;50.972;7.072;2023-03-21T12:25:25;100952.91;;;11.22;100.00
8140;BME280;4111;50.972;7.072;2023-03-21T12:31:19;100942.09;;;11.27;100.00
8140;BME280;4111;50.972;7.072;2023-03-21T12:36:36;100941.19;;;11.21;100.00
8140;BME280;4111;50.972;7.072;2023-03-21T12:39:23;100937.31;;;11.17;100.00
8140;BME280;4111;50.972;7.072;2023-03-21T12:44:54;100951.41;;;11.14;100.00
8140;BME280;4111;50.972;7.072;2023-03-21T12:47:25;100958.06;;;11.23;100.00
8140;BME280;4111;50.972;7.072;2023-03-21T12:50:13;100928.69;;;11.20;100.00
8140;BME280;4111;50.972;7.072;2023-03-21T12:52:43;100929.94;;;11.29;100.00
8140;BME280;4111;50.972;7.072;2023-03-21T12:55:17;100945.88;;;11.43;100.00
8140;BME280;4111;50.972;7.072;2023-03-21T12:57:51;100942.59;;;11.41;100.00
8140;BME280;4111;50.972;7.072;2023-03-21T13:00:33;100935.84;;;11.43;100.00
8140;BME280;4111;50.972;7.072;2023-03-21T13:03:15;100918.94;;;11.41;100.00
8140;BME280;4111;50.972;7.072;2023-03-21T13:05:56;100927.59;;;11.38;100.00
8140;BME280;4111;50.972;7.072;2023-03-21T13:08:34;100920.94;;;11.46;100.00
8140;BME280;4111;50.972;7.072;2023-03-21T13:11:04;100920.84;;;11.41;100.00
8140;BME280;4111;50.972;7.072;2023-03-21T13:13:39;100913.25;;;11.43;100.00
8140;BME280;4111;50.972;7.072;2023-03-21T13:19:12;100912.94;;;11.56;100.00
8140;BME280;4111;50.972;7.072;2023-03-21T13:21:52;100908.16;;;11.63;100.00
8140;BME280;4111;50.972;7.072;2023-03-21T13:24:37;100907.72;;;11.71;100.00
8140;BME280;4111;50.972;7.072;2023-03-21T13:27:17;100894.59;;;11.68;100.00
8140;BME280;4111;50.972;7.072;2023-03-21T13:29:49;100895.75;;;11.73;100.00
8140;BME280;4111;50.972;7.072;2023-03-21T13:32:33;100886.41;;;11.63;100.00
8140;BME280;4111;50.972;7.072;2023-03-21T13:35:18;100875.75;;;11.62;100.00
8140;BME280;4111;50.972;7.072;2023-03-21T13:37:51;100880.28;;;11.56;100.00
8140;BME280;4111;50.972;7.072;2023-03-21T13:40:24;100861.00;;;11.58;100.00
8140;BME280;4111;50.972;7.072;2023-03-21T13:42:55;100861.41;;;11.66;100.00
8140;BME280;4111;50.972;7.072;2023-03-21T13:45:31;100862.50;;;11.65;100.00
8140;BME280;4111;50.972;7.072;2023-03-21T13:48:03;100870.91;;;11.64;100.00
8140;BME280;4111;50.972;7.072;2023-03-21T13:50:48;100862.97;;;11.62;100.00
8140;BME280;4111;50.972;7.072;2023-03-21T13:53:21;100845.31;;;11.65;100.00
8140;BME280;4111;50.972;7.072;2023-03-21T13:56:18;100839.47;;;11.73;100.00
8140;BME280;4111;50.972;7.072;2023-03-21T14:01:28;100844.34;;;11.71;100.00
8140;BME280;4111;50.972;7.072;2023-03-21T14:09:17;100841.56;;;11.88;100.00
8140;BME280;4111;50.972;7.072;2023-03-21T14:11:45;100834.56;;;11.92;99.50
8140;BME280;4111;50.972;7.072;2023-03-21T14:14:14;100830.09;;;11.86;99.17
8140;BME280;4111;50.972;7.072;2023-03-21T14:16:40;100811.22;;;11.96;98.99
8140;BME280;4111;50.972;7.072;2023-03-21T14:19:10;100818.91;;;12.04;99.05
8140;BME280;4111;50.972;7.072;2023-03-21T14:21:44;100817.47;;;12.19;99.01
8140;BME280;4111;50.972;7.072;2023-03-21T14:24:13;100814.78;;;12.24;98.63
8140;BME280;4111;50.972;7.072;2023-03-21T14:26:42;100818.03;;;12.21;98.39
8140;BME280;4111;50.972;7.072;2023-03-21T14:29:16;100812.63;;;12.26;98.41
8140;BME280;4111;50.972;7.072;2023-03-21T14:31:52;100805.31;;;12.26;97.71
8140;BME280;4111;50.972;7.072;2023-03-21T14:34:20;100801.94;;;12.19;97.51
8140;BME280;4111;50.972;7.072;2023-03-21T14:36:47;100801.81;;;12.31;97.79
8140;BME280;4111;50.972;7.072;2023-03-21T14:39:29;100805.16;;;12.38;97.77
8140;BME280;4111;50.972;7.072;2023-03-21T14:42:02;100800.72;;;12.32;97.23